EGOM

RAF Spadeadam Airport

Spadeadam, United Kingdom
METAR EGOM 231350Z AUTO 14016KT 9999 BKN023/// SCT033/// 03/M02 Q1020
Observed Flight Rules
Feb-23 @ 13:50 UTC (32 minutes ago) Marginal Visual Flight Rules
Wind Visibility Clouds
140° at 16 knots 10,000+ meters
  • Broken at 2,300' AGL
  • Scattered at 3,300' AGL
Temperatures Readings
Current 3°C / 37°F
Dewpoint -2°C / 28°F
Humidity 70%
Altimeter 30.12" Hg
Pressure 1020 hPa
Elevation 325
METAR EGOM 231350Z AUTO 14016KT 9999 BKN023/// SCT033/// 03/M02 Q1020
Observed Flight Rules
Feb-23 @ 13:50 UTC
(32 minutes ago)
MVFR
Wind Visibility
140° at 16 knots 10,000+ meters
Clouds
  • Broken at 2,300' AGL
  • Scattered at 3,300' AGL
Temperature Dewpoint
3°C / 37°F -2°C / 28°F
Humidity Altimeter Pressure
70% 30.12" Hg 1020 hPa